sensor_id;sensor_type;location;lat;lon;timestamp;pressure;altitude;pressure_sealevel;temperature;humidity
3294;BME280;1659;51.470;6.770;2023-03-31T00:02:11;100337.38;;;11.05;91.30
3294;BME280;1659;51.470;6.770;2023-03-31T00:04:39;100335.59;;;11.05;91.39
3294;BME280;1659;51.470;6.770;2023-03-31T00:07:11;100331.19;;;11.04;91.76
3294;BME280;1659;51.470;6.770;2023-03-31T00:09:37;100332.06;;;11.06;91.54
3294;BME280;1659;51.470;6.770;2023-03-31T00:12:05;100324.16;;;11.05;91.63
3294;BME280;1659;51.470;6.770;2023-03-31T00:14:32;100318.91;;;11.03;91.91
3294;BME280;1659;51.470;6.770;2023-03-31T00:16:59;100310.97;;;11.03;91.72
3294;BME280;1659;51.470;6.770;2023-03-31T00:19:28;100304.88;;;11.01;91.58
3294;BME280;1659;51.470;6.770;2023-03-31T00:21:57;100301.34;;;11.01;91.71
3294;BME280;1659;51.470;6.770;2023-03-31T00:24:26;100298.75;;;10.99;91.55
3294;BME280;1659;51.470;6.770;2023-03-31T00:26:56;100293.47;;;10.99;91.55
3294;BME280;1659;51.470;6.770;2023-03-31T00:29:23;100284.63;;;11.00;91.62
3294;BME280;1659;51.470;6.770;2023-03-31T00:31:50;100293.38;;;11.02;91.37
3294;BME280;1659;51.470;6.770;2023-03-31T00:34:17;100285.34;;;11.05;91.34
3294;BME280;1659;51.470;6.770;2023-03-31T00:36:44;100275.56;;;11.09;90.87
3294;BME280;1659;51.470;6.770;2023-03-31T00:39:12;100278.16;;;11.10;90.97
3294;BME280;1659;51.470;6.770;2023-03-31T00:41:39;100271.91;;;11.13;90.84
3294;BME280;1659;51.470;6.770;2023-03-31T00:44:09;100256.91;;;11.13;90.73
3294;BME280;1659;51.470;6.770;2023-03-31T00:46:41;100255.13;;;11.14;90.77
3294;BME280;1659;51.470;6.770;2023-03-31T00:49:24;100255.09;;;11.15;90.80
3294;BME280;1659;51.470;6.770;2023-03-31T00:51:53;100250.69;;;11.14;90.86
3294;BME280;1659;51.470;6.770;2023-03-31T00:54:22;100247.31;;;11.09;90.49
3294;BME280;1659;51.470;6.770;2023-03-31T00:56:51;100250.28;;;10.99;90.83
3294;BME280;1659;51.470;6.770;2023-03-31T00:59:22;100256.84;;;10.85;91.22
3294;BME280;1659;51.470;6.770;2023-03-31T01:01:52;100244.88;;;10.72;91.99
3294;BME280;1659;51.470;6.770;2023-03-31T01:04:20;100249.50;;;10.64;92.66
3294;BME280;1659;51.470;6.770;2023-03-31T01:06:54;100241.84;;;10.54;93.49
3294;BME280;1659;51.470;6.770;2023-03-31T01:09:26;100239.44;;;10.45;94.09
3294;BME280;1659;51.470;6.770;2023-03-31T01:11:55;100241.38;;;10.38;94.57
3294;BME280;1659;51.470;6.770;2023-03-31T01:14:22;100223.97;;;10.30;95.33
3294;BME280;1659;51.470;6.770;2023-03-31T01:16:48;100224.13;;;10.24;96.04
3294;BME280;1659;51.470;6.770;2023-03-31T01:19:23;100219.88;;;10.18;96.52
3294;BME280;1659;51.470;6.770;2023-03-31T01:22:11;100214.69;;;10.13;96.65
3294;BME280;1659;51.470;6.770;2023-03-31T01:25:26;100205.13;;;10.09;97.33
3294;BME280;1659;51.470;6.770;2023-03-31T01:28:07;100206.97;;;10.06;97.82
3294;BME280;1659;51.470;6.770;2023-03-31T01:39:59;100158.75;;;9.99;99.37
3294;BME280;1659;51.470;6.770;2023-03-31T01:42:35;100146.47;;;9.98;99.70
3294;BME280;1659;51.470;6.770;2023-03-31T01:45:09;100152.63;;;9.98;99.79
3294;BME280;1659;51.470;6.770;2023-03-31T01:47:43;100145.56;;;9.99;99.95
3294;BME280;1659;51.470;6.770;2023-03-31T01:50:18;100145.59;;;9.97;99.93
3294;BME280;1659;51.470;6.770;2023-03-31T01:52:55;100138.56;;;9.98;99.97
3294;BME280;1659;51.470;6.770;2023-03-31T01:55:29;100131.50;;;9.98;100.00
3294;BME280;1659;51.470;6.770;2023-03-31T01:58:03;100128.88;;;9.98;100.00
3294;BME280;1659;51.470;6.770;2023-03-31T02:00:33;100130.53;;;10.01;100.00
3294;BME280;1659;51.470;6.770;2023-03-31T02:03:08;100120.88;;;10.01;100.00
3294;BME280;1659;51.470;6.770;2023-03-31T02:05:41;100112.91;;;10.03;100.00
3294;BME280;1659;51.470;6.770;2023-03-31T02:08:11;100106.69;;;10.06;100.00
3294;BME280;1659;51.470;6.770;2023-03-31T02:10:43;100104.84;;;10.08;100.00
3294;BME280;1659;51.470;6.770;2023-03-31T02:13:12;100096.03;;;10.09;100.00
3294;BME280;1659;51.470;6.770;2023-03-31T02:15:41;100093.31;;;10.12;100.00
3294;BME280;1659;51.470;6.770;2023-03-31T02:18:11;100084.47;;;10.13;100.00
3294;BME280;1659;51.470;6.770;2023-03-31T02:20:45;100075.66;;;10.14;100.00
3294;BME280;1659;51.470;6.770;2023-03-31T02:23:14;100069.44;;;10.15;100.00
3294;BME280;1659;51.470;6.770;2023-03-31T02:25:48;100065.97;;;10.14;100.00
3294;BME280;1659;51.470;6.770;2023-03-31T02:28:19;100055.41;;;10.14;100.00
3294;BME280;1659;51.470;6.770;2023-03-31T02:30:51;100051.88;;;10.15;100.00
3294;BME280;1659;51.470;6.770;2023-03-31T02:33:23;100041.31;;;10.15;100.00
3294;BME280;1659;51.470;6.770;2023-03-31T02:35:50;100040.41;;;10.15;100.00
3294;BME280;1659;51.470;6.770;2023-03-31T02:38:17;100035.13;;;10.15;100.00
3294;BME280;1659;51.470;6.770;2023-03-31T02:40:44;100022.81;;;10.15;100.00
3294;BME280;1659;51.470;6.770;2023-03-31T02:43:11;100008.72;;;10.15;100.00
3294;BME280;1659;51.470;6.770;2023-03-31T02:45:43;100000.81;;;10.15;100.00
3294;BME280;1659;51.470;6.770;2023-03-31T02:48:14;99992.03;;;10.14;100.00
3294;BME280;1659;51.470;6.770;2023-03-31T02:53:51;99971.69;;;10.18;100.00
3294;BME280;1659;51.470;6.770;2023-03-31T02:56:34;99973.44;;;10.19;100.00
3294;BME280;1659;51.470;6.770;2023-03-31T02:59:15;99954.91;;;10.20;100.00
3294;BME280;1659;51.470;6.770;2023-03-31T03:01:58;99946.91;;;10.22;100.00
3294;BME280;1659;51.470;6.770;2023-03-31T03:04:37;99940.72;;;10.23;100.00
3294;BME280;1659;51.470;6.770;2023-03-31T03:07:16;99937.19;;;10.24;100.00
3294;BME280;1659;51.470;6.770;2023-03-31T03:09:55;99931.78;;;10.27;100.00
3294;BME280;1659;51.470;6.770;2023-03-31T03:12:32;99920.28;;;10.31;100.00
3294;BME280;1659;51.470;6.770;2023-03-31T03:15:03;99906.88;;;10.37;100.00
3294;BME280;1659;51.470;6.770;2023-03-31T03:17:34;99904.22;;;10.37;100.00
3294;BME280;1659;51.470;6.770;2023-03-31T03:20:05;99894.47;;;10.39;100.00
3294;BME280;1659;51.470;6.770;2023-03-31T03:22:34;99897.94;;;10.42;100.00
3294;BME280;1659;51.470;6.770;2023-03-31T03:25:02;99894.44;;;10.41;100.00
3294;BME280;1659;51.470;6.770;2023-03-31T03:27:30;99893.56;;;10.41;100.00
3294;BME280;1659;51.470;6.770;2023-03-31T03:29:57;99883.91;;;10.39;100.00
3294;BME280;1659;51.470;6.770;2023-03-31T03:32:23;99870.69;;;10.39;100.00
3294;BME280;1659;51.470;6.770;2023-03-31T03:34:50;99870.69;;;10.39;100.00
3294;BME280;1659;51.470;6.770;2023-03-31T03:37:16;99869.91;;;10.37;100.00
3294;BME280;1659;51.470;6.770;2023-03-31T03:39:43;99857.56;;;10.38;100.00
3294;BME280;1659;51.470;6.770;2023-03-31T03:42:09;99850.56;;;10.37;100.00
3294;BME280;1659;51.470;6.770;2023-03-31T03:44:37;99850.56;;;10.37;100.00
3294;BME280;1659;51.470;6.770;2023-03-31T03:47:04;99850.56;;;10.37;100.00
3294;BME280;1659;51.470;6.770;2023-03-31T03:49:30;99849.69;;;10.36;100.00
3294;BME280;1659;51.470;6.770;2023-03-31T03:51:57;99837.41;;;10.35;100.00
3294;BME280;1659;51.470;6.770;2023-03-31T03:54:24;99826.84;;;10.35;100.00
3294;BME280;1659;51.470;6.770;2023-03-31T03:56:50;99828.63;;;10.35;100.00
3294;BME280;1659;51.470;6.770;2023-03-31T03:59:17;99840.09;;;10.34;100.00
3294;BME280;1659;51.470;6.770;2023-03-31T04:01:44;99839.28;;;10.32;100.00
3294;BME280;1659;51.470;6.770;2023-03-31T04:04:11;99804.09;;;10.31;100.00
3294;BME280;1659;51.470;6.770;2023-03-31T04:06:38;99789.13;;;10.30;100.00
3294;BME280;1659;51.470;6.770;2023-03-31T04:09:04;99785.66;;;10.28;100.00
3294;BME280;1659;51.470;6.770;2023-03-31T04:11:31;99776.09;;;10.26;100.00
3294;BME280;1659;51.470;6.770;2023-03-31T04:13:58;99787.56;;;10.25;100.00
3294;BME280;1659;51.470;6.770;2023-03-31T04:16:24;99791.94;;;10.26;100.00
3294;BME280;1659;51.470;6.770;2023-03-31T04:18:52;99806.03;;;10.25;100.00
3294;BME280;1659;51.470;6.770;2023-03-31T04:21:21;99800.75;;;10.25;100.00
3294;BME280;1659;51.470;6.770;2023-03-31T04:23:49;99789.28;;;10.26;100.00
3294;BME280;1659;51.470;6.770;2023-03-31T04:26:24;99781.38;;;10.26;100.00
3294;BME280;1659;51.470;6.770;2023-03-31T04:28:55;99763.78;;;10.25;100.00
3294;BME280;1659;51.470;6.770;2023-03-31T04:31:25;99756.72;;;10.25;100.00
3294;BME280;1659;51.470;6.770;2023-03-31T04:33:56;99737.38;;;10.25;100.00
3294;BME280;1659;51.470;6.770;2023-03-31T04:36:27;99713.63;;;10.25;100.00
3294;BME280;1659;51.470;6.770;2023-03-31T04:38:55;99726.03;;;10.23;100.00
3294;BME280;1659;51.470;6.770;2023-03-31T04:41:23;99726.94;;;10.21;100.00
3294;BME280;1659;51.470;6.770;2023-03-31T04:43:51;99719.94;;;10.20;100.00
3294;BME280;1659;51.470;6.770;2023-03-31T04:46:18;99711.09;;;10.21;100.00
3294;BME280;1659;51.470;6.770;2023-03-31T04:48:45;99690.00;;;10.20;100.00
3294;BME280;1659;51.470;6.770;2023-03-31T04:51:12;99697.94;;;10.20;100.00
3294;BME280;1659;51.470;6.770;2023-03-31T04:53:40;99676.88;;;10.18;100.00
3294;BME280;1659;51.470;6.770;2023-03-31T04:56:07;99689.22;;;10.18;100.00
3294;BME280;1659;51.470;6.770;2023-03-31T04:58:33;99672.41;;;10.20;100.00
3294;BME280;1659;51.470;6.770;2023-03-31T05:01:00;99653.06;;;10.20;100.00
3294;BME280;1659;51.470;6.770;2023-03-31T05:03:26;99649.63;;;10.18;100.00
3294;BME280;1659;51.470;6.770;2023-03-31T05:05:53;99628.59;;;10.15;100.00
3294;BME280;1659;51.470;6.770;2023-03-31T05:08:21;99615.44;;;10.13;100.00
3294;BME280;1659;51.470;6.770;2023-03-31T05:10:48;99625.19;;;10.11;100.00
3294;BME280;1659;51.470;6.770;2023-03-31T05:13:14;99640.25;;;10.09;100.00
3294;BME280;1659;51.470;6.770;2023-03-31T05:15:41;99609.56;;;10.07;100.00
3294;BME280;1659;51.470;6.770;2023-03-31T05:18:09;99611.34;;;10.05;100.00
3294;BME280;1659;51.470;6.770;2023-03-31T05:20:35;99612.34;;;10.02;100.00
3294;BME280;1659;51.470;6.770;2023-03-31T05:23:03;99604.38;;;10.04;100.00
3294;BME280;1659;51.470;6.770;2023-03-31T05:25:31;99602.63;;;10.02;100.00
3294;BME280;1659;51.470;6.770;2023-03-31T05:27:58;99608.84;;;10.01;100.00
3294;BME280;1659;51.470;6.770;2023-03-31T05:30:25;99608.84;;;10.01;100.00
3294;BME280;1659;51.470;6.770;2023-03-31T05:32:52;99607.06;;;10.02;100.00
3294;BME280;1659;51.470;6.770;2023-03-31T05:35:19;99597.31;;;10.04;100.00
3294;BME280;1659;51.470;6.770;2023-03-31T05:37:45;99591.13;;;10.05;100.00
3294;BME280;1659;51.470;6.770;2023-03-31T05:40:12;99595.31;;;10.11;100.00
3294;BME280;1659;51.470;6.770;2023-03-31T05:42:40;99589.94;;;10.14;100.00
3294;BME280;1659;51.470;6.770;2023-03-31T05:45:07;99588.09;;;10.16;100.00
3294;BME280;1659;51.470;6.770;2023-03-31T05:47:34;99583.63;;;10.18;100.00
3294;BME280;1659;51.470;6.770;2023-03-31T05:50:00;99575.59;;;10.21;100.00
3294;BME280;1659;51.470;6.770;2023-03-31T05:52:31;99584.31;;;10.23;100.00
3294;BME280;1659;51.470;6.770;2023-03-31T05:54:58;99571.13;;;10.23;100.00
3294;BME280;1659;51.470;6.770;2023-03-31T05:57:24;99568.56;;;10.20;100.00
3294;BME280;1659;51.470;6.770;2023-03-31T05:59:52;99562.50;;;10.18;100.00
3294;BME280;1659;51.470;6.770;2023-03-31T06:02:19;99569.47;;;10.20;100.00
3294;BME280;1659;51.470;6.770;2023-03-31T06:04:45;99564.09;;;10.22;100.00
3294;BME280;1659;51.470;6.770;2023-03-31T06:07:12;99569.31;;;10.24;100.00
3294;BME280;1659;51.470;6.770;2023-03-31T06:09:39;99564.94;;;10.24;100.00
3294;BME280;1659;51.470;6.770;2023-03-31T06:12:06;99554.38;;;10.24;100.00
3294;BME280;1659;51.470;6.770;2023-03-31T06:14:32;99549.94;;;10.25;100.00
3294;BME280;1659;51.470;6.770;2023-03-31T06:17:00;99556.13;;;10.24;99.89
3294;BME280;1659;51.470;6.770;2023-03-31T06:19:27;99557.88;;;10.25;100.00
3294;BME280;1659;51.470;6.770;2023-03-31T06:21:53;99557.91;;;10.23;100.00
3294;BME280;1659;51.470;6.770;2023-03-31T06:24:20;99539.53;;;10.20;100.00
3294;BME280;1659;51.470;6.770;2023-03-31T06:26:48;99550.16;;;10.18;100.00
3294;BME280;1659;51.470;6.770;2023-03-31T06:29:15;99538.84;;;10.15;100.00
3294;BME280;1659;51.470;6.770;2023-03-31T06:31:41;99543.31;;;10.13;100.00
3294;BME280;1659;51.470;6.770;2023-03-31T06:34:09;99544.31;;;10.10;100.00
3294;BME280;1659;51.470;6.770;2023-03-31T06:36:36;99540.78;;;10.10;100.00
3294;BME280;1659;51.470;6.770;2023-03-31T06:39:02;99544.41;;;10.07;100.00
3294;BME280;1659;51.470;6.770;2023-03-31T06:41:29;99542.69;;;10.06;100.00
3294;BME280;1659;51.470;6.770;2023-03-31T06:43:55;99550.66;;;10.05;100.00
3294;BME280;1659;51.470;6.770;2023-03-31T06:46:23;99541.03;;;10.04;100.00
3294;BME280;1659;51.470;6.770;2023-03-31T06:48:49;99533.97;;;10.04;100.00
3294;BME280;1659;51.470;6.770;2023-03-31T06:51:17;99533.97;;;10.04;100.00
3294;BME280;1659;51.470;6.770;2023-03-31T06:53:44;99529.47;;;10.06;100.00
3294;BME280;1659;51.470;6.770;2023-03-31T06:56:10;99530.38;;;10.07;100.00
3294;BME280;1659;51.470;6.770;2023-03-31T06:58:37;99525.09;;;10.07;100.00
3294;BME280;1659;51.470;6.770;2023-03-31T07:01:04;99525.16;;;10.05;100.00
3294;BME280;1659;51.470;6.770;2023-03-31T07:03:32;99521.72;;;10.03;100.00
3294;BME280;1659;51.470;6.770;2023-03-31T07:05:59;99531.38;;;10.02;100.00
3294;BME280;1659;51.470;6.770;2023-03-31T07:08:27;99526.25;;;9.99;100.00
3294;BME280;1659;51.470;6.770;2023-03-31T07:10:55;99527.19;;;9.97;100.00
3294;BME280;1659;51.470;6.770;2023-03-31T07:13:23;99526.44;;;9.93;100.00
3294;BME280;1659;51.470;6.770;2023-03-31T07:15:50;99523.00;;;9.91;100.00
3294;BME280;1659;51.470;6.770;2023-03-31T07:18:17;99523.91;;;9.90;100.00
3294;BME280;1659;51.470;6.770;2023-03-31T07:20:47;99516.09;;;9.87;100.00
3294;BME280;1659;51.470;6.770;2023-03-31T07:23:15;99510.94;;;9.84;100.00
3294;BME280;1659;51.470;6.770;2023-03-31T07:25:43;99514.50;;;9.83;100.00
3294;BME280;1659;51.470;6.770;2023-03-31T07:28:10;99518.97;;;9.81;100.00
3294;BME280;1659;51.470;6.770;2023-03-31T07:30:36;99508.47;;;9.79;100.00
3294;BME280;1659;51.470;6.770;2023-03-31T07:33:04;99510.25;;;9.79;100.00
3294;BME280;1659;51.470;6.770;2023-03-31T07:35:31;99511.97;;;9.80;100.00
3294;BME280;1659;51.470;6.770;2023-03-31T07:37:58;99512.88;;;9.79;100.00
3294;BME280;1659;51.470;6.770;2023-03-31T07:40:25;99509.38;;;9.78;100.00
3294;BME280;1659;51.470;6.770;2023-03-31T07:42:54;99512.00;;;9.78;100.00
3294;BME280;1659;51.470;6.770;2023-03-31T07:45:23;99511.16;;;9.78;100.00
3294;BME280;1659;51.470;6.770;2023-03-31T07:47:50;99503.28;;;9.76;100.00
3294;BME280;1659;51.470;6.770;2023-03-31T07:50:17;99510.34;;;9.76;100.00
3294;BME280;1659;51.470;6.770;2023-03-31T07:52:45;99514.78;;;9.75;100.00
3294;BME280;1659;51.470;6.770;2023-03-31T07:55:11;99516.53;;;9.75;100.00
3294;BME280;1659;51.470;6.770;2023-03-31T07:57:38;99498.06;;;9.75;100.00
3294;BME280;1659;51.470;6.770;2023-03-31T08:00:08;99491.94;;;9.74;100.00
3294;BME280;1659;51.470;6.770;2023-03-31T08:02:36;99484.97;;;9.73;100.00
3294;BME280;1659;51.470;6.770;2023-03-31T08:05:04;99482.31;;;9.73;100.00
3294;BME280;1659;51.470;6.770;2023-03-31T08:07:32;99483.13;;;9.75;100.00
3294;BME280;1659;51.470;6.770;2023-03-31T08:09:59;99478.69;;;9.76;100.00
3294;BME280;1659;51.470;6.770;2023-03-31T08:12:25;99478.66;;;9.77;100.00
3294;BME280;1659;51.470;6.770;2023-03-31T08:14:52;99473.31;;;9.79;100.00
3294;BME280;1659;51.470;6.770;2023-03-31T08:17:20;99474.13;;;9.81;100.00
3294;BME280;1659;51.470;6.770;2023-03-31T08:19:46;99464.38;;;9.83;100.00
3294;BME280;1659;51.470;6.770;2023-03-31T08:22:13;99470.34;;;9.88;100.00
3294;BME280;1659;51.470;6.770;2023-03-31T08:24:40;99466.56;;;9.95;100.00
3294;BME280;1659;51.470;6.770;2023-03-31T08:27:06;99460.13;;;10.02;100.00
3294;BME280;1659;51.470;6.770;2023-03-31T08:29:33;99461.50;;;10.13;100.00
3294;BME280;1659;51.470;6.770;2023-03-31T08:32:00;99453.16;;;10.24;100.00
3294;BME280;1659;51.470;6.770;2023-03-31T08:34:27;99456.31;;;10.35;100.00
3294;BME280;1659;51.470;6.770;2023-03-31T08:36:54;99456.78;;;10.45;100.00
3294;BME280;1659;51.470;6.770;2023-03-31T08:39:21;99452.88;;;10.55;100.00
3294;BME280;1659;51.470;6.770;2023-03-31T08:41:53;99442.81;;;10.65;100.00
3294;BME280;1659;51.470;6.770;2023-03-31T08:44:28;99445.91;;;10.74;100.00
3294;BME280;1659;51.470;6.770;2023-03-31T08:46:58;99444.63;;;10.85;100.00
3294;BME280;1659;51.470;6.770;2023-03-31T08:49:41;99435.44;;;10.93;100.00
3294;BME280;1659;51.470;6.770;2023-03-31T08:52:12;99436.78;;;11.04;100.00
3294;BME280;1659;51.470;6.770;2023-03-31T08:54:42;99430.25;;;11.12;100.00
3294;BME280;1659;51.470;6.770;2023-03-31T08:57:14;99438.66;;;11.22;100.00
3294;BME280;1659;51.470;6.770;2023-03-31T08:59:43;99440.13;;;11.29;100.00
3294;BME280;1659;51.470;6.770;2023-03-31T09:02:17;99438.91;;;11.37;100.00
3294;BME280;1659;51.470;6.770;2023-03-31T09:05:05;99434.34;;;11.40;100.00
3294;BME280;1659;51.470;6.770;2023-03-31T09:07:39;99429.06;;;11.40;100.00
3294;BME280;1659;51.470;6.770;2023-03-31T09:10:22;99423.91;;;11.37;100.00
3294;BME280;1659;51.470;6.770;2023-03-31T09:12:56;99427.50;;;11.36;100.00
3294;BME280;1659;51.470;6.770;2023-03-31T09:15:27;99427.56;;;11.34;100.00
3294;BME280;1659;51.470;6.770;2023-03-31T09:17:57;99422.41;;;11.31;100.00
3294;BME280;1659;51.470;6.770;2023-03-31T09:20:29;99414.59;;;11.28;100.00
3294;BME280;1659;51.470;6.770;2023-03-31T09:23:00;99415.53;;;11.27;100.00
3294;BME280;1659;51.470;6.770;2023-03-31T09:25:34;99412.94;;;11.26;100.00
3294;BME280;1659;51.470;6.770;2023-03-31T09:28:02;99403.22;;;11.26;100.00
3294;BME280;1659;51.470;6.770;2023-03-31T09:30:34;99413.66;;;11.29;100.00
3294;BME280;1659;51.470;6.770;2023-03-31T09:33:09;99399.38;;;11.33;100.00
3294;BME280;1659;51.470;6.770;2023-03-31T09:35:38;99392.09;;;11.39;100.00
3294;BME280;1659;51.470;6.770;2023-03-31T09:38:04;99388.31;;;11.44;100.00
3294;BME280;1659;51.470;6.770;2023-03-31T09:40:31;99389.63;;;11.55;100.00
3294;BME280;1659;51.470;6.770;2023-03-31T09:43:00;99377.72;;;11.65;100.00
3294;BME280;1659;51.470;6.770;2023-03-31T09:45:29;99379.88;;;11.76;99.63
3294;BME280;1659;51.470;6.770;2023-03-31T09:48:00;99366.00;;;11.89;98.65
3294;BME280;1659;51.470;6.770;2023-03-31T09:50:28;99367.09;;;12.04;98.44
3294;BME280;1659;51.470;6.770;2023-03-31T09:52:59;99363.44;;;12.26;98.44
3294;BME280;1659;51.470;6.770;2023-03-31T09:55:31;99361.53;;;12.64;98.20
3294;BME280;1659;51.470;6.770;2023-03-31T09:58:00;99351.56;;;13.04;97.08
3294;BME280;1659;51.470;6.770;2023-03-31T10:00:27;99351.25;;;13.46;95.66
3294;BME280;1659;51.470;6.770;2023-03-31T10:02:54;99350.59;;;13.74;94.50
3294;BME280;1659;51.470;6.770;2023-03-31T10:05:29;99353.78;;;13.81;93.61
3294;BME280;1659;51.470;6.770;2023-03-31T10:08:29;99343.84;;;13.68;91.88
3294;BME280;1659;51.470;6.770;2023-03-31T10:11:06;99353.69;;;13.49;91.01
3294;BME280;1659;51.470;6.770;2023-03-31T10:13:38;99355.75;;;13.26;90.70
3294;BME280;1659;51.470;6.770;2023-03-31T10:16:11;99367.81;;;12.98;90.05
3294;BME280;1659;51.470;6.770;2023-03-31T10:18:40;99361.88;;;12.76;90.70
3294;BME280;1659;51.470;6.770;2023-03-31T10:21:19;99358.59;;;12.53;91.22
3294;BME280;1659;51.470;6.770;2023-03-31T10:23:48;99355.66;;;12.40;92.17
3294;BME280;1659;51.470;6.770;2023-03-31T10:26:17;99349.44;;;12.41;92.48
3294;BME280;1659;51.470;6.770;2023-03-31T10:28:46;99360.28;;;12.54;93.00
3294;BME280;1659;51.470;6.770;2023-03-31T10:31:14;99353.44;;;12.68;93.34
3294;BME280;1659;51.470;6.770;2023-03-31T10:33:44;99345.91;;;12.77;92.83
3294;BME280;1659;51.470;6.770;2023-03-31T10:36:17;99334.56;;;12.91;93.06
3294;BME280;1659;51.470;6.770;2023-03-31T10:38:49;99330.28;;;13.06;92.74
3294;BME280;1659;51.470;6.770;2023-03-31T10:41:17;99322.59;;;13.17;92.64
3294;BME280;1659;51.470;6.770;2023-03-31T10:43:48;99324.03;;;13.25;91.83
3294;BME280;1659;51.470;6.770;2023-03-31T10:46:15;99313.47;;;13.40;92.02
3294;BME280;1659;51.470;6.770;2023-03-31T10:48:42;99321.91;;;13.65;91.99
3294;BME280;1659;51.470;6.770;2023-03-31T10:51:13;99331.84;;;13.77;91.44
3294;BME280;1659;51.470;6.770;2023-03-31T10:53:41;99331.94;;;13.75;90.33
3294;BME280;1659;51.470;6.770;2023-03-31T10:56:17;99342.88;;;13.69;90.35
3294;BME280;1659;51.470;6.770;2023-03-31T10:58:58;99336.00;;;13.49;86.46
3294;BME280;1659;51.470;6.770;2023-03-31T11:01:41;99341.47;;;13.29;86.29
3294;BME280;1659;51.470;6.770;2023-03-31T11:04:28;99339.56;;;13.15;86.89
3294;BME280;1659;51.470;6.770;2023-03-31T11:07:06;99342.69;;;13.06;87.05
3294;BME280;1659;51.470;6.770;2023-03-31T11:09:44;99349.75;;;13.05;86.43
3294;BME280;1659;51.470;6.770;2023-03-31T11:12:20;99345.50;;;13.02;85.90
3294;BME280;1659;51.470;6.770;2023-03-31T11:15:11;99349.13;;;13.00;85.40
3294;BME280;1659;51.470;6.770;2023-03-31T11:17:53;99342.06;;;13.00;85.33
3294;BME280;1659;51.470;6.770;2023-03-31T11:20:31;99340.19;;;13.02;85.64
3294;BME280;1659;51.470;6.770;2023-03-31T11:23:05;99334.88;;;13.02;84.36
3294;BME280;1659;51.470;6.770;2023-03-31T11:25:38;99336.34;;;13.08;84.40
3294;BME280;1659;51.470;6.770;2023-03-31T11:28:30;99333.94;;;13.21;84.51
3294;BME280;1659;51.470;6.770;2023-03-31T11:31:13;99338.63;;;13.33;83.32
3294;BME280;1659;51.470;6.770;2023-03-31T11:33:56;99333.66;;;13.43;82.60
3294;BME280;1659;51.470;6.770;2023-03-31T11:36:39;99328.81;;;13.51;83.04
3294;BME280;1659;51.470;6.770;2023-03-31T11:39:32;99333.28;;;13.51;81.11
3294;BME280;1659;51.470;6.770;2023-03-31T11:42:03;99327.09;;;13.50;81.26
3294;BME280;1659;51.470;6.770;2023-03-31T11:44:38;99326.25;;;13.50;80.83
3294;BME280;1659;51.470;6.770;2023-03-31T11:47:09;99330.00;;;13.46;80.05
3294;BME280;1659;51.470;6.770;2023-03-31T11:49:40;99326.25;;;13.50;80.40
3294;BME280;1659;51.470;6.770;2023-03-31T11:52:13;99326.94;;;13.53;79.68
3294;BME280;1659;51.470;6.770;2023-03-31T11:54:45;99336.28;;;13.60;79.93
3294;BME280;1659;51.470;6.770;2023-03-31T11:57:19;99323.44;;;13.69;79.66
3294;BME280;1659;51.470;6.770;2023-03-31T11:59:53;99313.34;;;13.75;79.05
3294;BME280;1659;51.470;6.770;2023-03-31T12:02:26;99318.81;;;13.88;79.06
3294;BME280;1659;51.470;6.770;2023-03-31T12:04:57;99311.31;;;13.96;78.00
3294;BME280;1659;51.470;6.770;2023-03-31T12:07:30;99302.97;;;14.03;77.94
3294;BME280;1659;51.470;6.770;2023-03-31T12:09:59;99296.44;;;14.08;77.71
3294;BME280;1659;51.470;6.770;2023-03-31T12:12:32;99300.75;;;14.11;78.19
3294;BME280;1659;51.470;6.770;2023-03-31T12:15:10;99300.06;;;14.07;78.28
3294;BME280;1659;51.470;6.770;2023-03-31T12:17:39;99305.81;;;14.00;78.43
3294;BME280;1659;51.470;6.770;2023-03-31T12:20:24;99308.28;;;13.87;78.08
3294;BME280;1659;51.470;6.770;2023-03-31T12:22:54;99298.78;;;13.83;78.36
3294;BME280;1659;51.470;6.770;2023-03-31T12:25:23;99305.72;;;13.85;78.50
3294;BME280;1659;51.470;6.770;2023-03-31T12:27:51;99304.78;;;13.86;77.76
3294;BME280;1659;51.470;6.770;2023-03-31T12:30:27;99305.31;;;13.93;77.64
3294;BME280;1659;51.470;6.770;2023-03-31T12:33:01;99314.72;;;13.98;76.10
3294;BME280;1659;51.470;6.770;2023-03-31T12:35:34;99309.16;;;14.03;75.46
3294;BME280;1659;51.470;6.770;2023-03-31T12:38:15;99295.78;;;14.05;74.96
3294;BME280;1659;51.470;6.770;2023-03-31T12:40:58;99291.13;;;14.08;75.45
3294;BME280;1659;51.470;6.770;2023-03-31T12:44:03;99290.72;;;14.16;75.48
3294;BME280;1659;51.470;6.770;2023-03-31T12:46:59;99275.38;;;14.21;75.03
3294;BME280;1659;51.470;6.770;2023-03-31T12:49:48;99276.66;;;14.30;74.86
3294;BME280;1659;51.470;6.770;2023-03-31T12:52:22;99266.31;;;14.40;74.78
3294;BME280;1659;51.470;6.770;2023-03-31T12:55:06;99260.41;;;14.50;74.03
3294;BME280;1659;51.470;6.770;2023-03-31T12:57:36;99254.78;;;14.55;74.04
3294;BME280;1659;51.470;6.770;2023-03-31T13:00:19;99255.13;;;14.65;74.44
3294;BME280;1659;51.470;6.770;2023-03-31T13:02:49;99252.50;;;14.79;74.67
3294;BME280;1659;51.470;6.770;2023-03-31T13:05:44;99244.53;;;14.94;74.40
3294;BME280;1659;51.470;6.770;2023-03-31T13:08:48;99229.63;;;15.05;73.42
3294;BME280;1659;51.470;6.770;2023-03-31T13:11:15;99233.03;;;15.07;73.30
3294;BME280;1659;51.470;6.770;2023-03-31T13:13:56;99241.31;;;15.03;73.35
3294;BME280;1659;51.470;6.770;2023-03-31T13:16:24;99228.38;;;14.97;73.57
3294;BME280;1659;51.470;6.770;2023-03-31T13:18:53;99238.63;;;14.88;73.09
3294;BME280;1659;51.470;6.770;2023-03-31T13:21:21;99236.28;;;14.84;71.86
3294;BME280;1659;51.470;6.770;2023-03-31T13:23:48;99243.28;;;14.85;71.96
3294;BME280;1659;51.470;6.770;2023-03-31T13:26:35;99243.19;;;14.86;71.88
3294;BME280;1659;51.470;6.770;2023-03-31T13:29:10;99231.88;;;14.83;70.94
3294;BME280;1659;51.470;6.770;2023-03-31T13:34:55;99214.69;;;14.74;68.55
3294;BME280;1659;51.470;6.770;2023-03-31T13:37:37;99222.56;;;14.76;69.09
3294;BME280;1659;51.470;6.770;2023-03-31T13:40:19;99216.59;;;14.86;69.77
3294;BME280;1659;51.470;6.770;2023-03-31T13:45:53;99225.16;;;15.06;69.40
3294;BME280;1659;51.470;6.770;2023-03-31T13:48:38;99219.28;;;15.15;68.33
3294;BME280;1659;51.470;6.770;2023-03-31T13:51:19;99216.97;;;15.23;68.53
3294;BME280;1659;51.470;6.770;2023-03-31T13:56:53;99220.84;;;15.32;67.34
3294;BME280;1659;51.470;6.770;2023-03-31T13:59:40;99212.03;;;15.32;65.80